Time;durP1;ratioP1;P1;durP2;ratioP2;P2;SDS_P1;SDS_P2;PMS_P1;PMS_P2;Temp;Humidity;BMP_temperature;BMP_pressure;BME280_temperature;BME280_humidity;BME280_pressure;Samples;Min_cycle;Max_cycle;Signal;HPM_P1;HPM_P2
2023/06/02 00:02:29;;;;;;;10.30;7.57;;;13.70;99.90;;;;;;5031329;28;20243;-67
2023/06/02 00:04:59;;;;;;;9.60;8.60;;;13.70;99.90;;;;;;5031357;28;20187;-67
2023/06/02 00:07:27;;;;;;;10.57;8.40;;;13.70;99.90;;;;;;5030899;28;20176;-67
2023/06/02 00:09:55;;;;;;;8.43;7.60;;;13.60;99.90;;;;;;5031131;28;20511;-67
2023/06/02 00:12:21;;;;;;;8.57;7.87;;;13.60;99.90;;;;;;5031101;28;20171;-67
2023/06/02 00:14:47;;;;;;;12.13;7.70;;;13.70;99.90;;;;;;5031190;28;20281;-67
2023/06/02 00:17:14;;;;;;;9.53;8.53;;;13.70;99.90;;;;;;5030746;28;20210;-67
2023/06/02 00:19:42;;;;;;;13.17;10.23;;;13.60;99.90;;;;;;5030803;28;20195;-66
2023/06/02 00:22:13;;;;;;;13.63;10.47;;;13.60;99.90;;;;;;5031112;28;20637;-66
2023/06/02 00:24:42;;;;;;;12.67;10.87;;;13.50;99.90;;;;;;5031127;28;20174;-67
2023/06/02 00:27:08;;;;;;;13.27;10.63;;;13.50;99.90;;;;;;5030907;28;20199;-66
2023/06/02 00:29:34;;;;;;;14.40;12.90;;;13.50;99.90;;;;;;5031063;28;20653;-66
2023/06/02 00:32:00;;;;;;;14.20;12.80;;;13.50;99.90;;;;;;5031016;28;20182;-66
2023/06/02 00:34:25;;;;;;;13.97;11.70;;;13.50;99.90;;;;;;5031123;28;20176;-67
2023/06/02 00:36:51;;;;;;;13.20;11.83;;;13.50;99.90;;;;;;5030738;28;20207;-66
2023/06/02 00:39:17;;;;;;;14.20;12.23;;;13.50;99.90;;;;;;5030767;28;20200;-66
2023/06/02 00:41:44;;;;;;;13.40;12.10;;;13.50;99.90;;;;;;5030533;28;20522;-64
2023/06/02 00:44:09;;;;;;;17.23;12.23;;;13.50;99.90;;;;;;5031033;28;20172;-66
2023/06/02 00:46:35;;;;;;;15.80;12.87;;;13.50;99.90;;;;;;5030583;28;20341;-66
2023/06/02 00:49:01;;;;;;;16.23;13.77;;;13.50;99.90;;;;;;5031080;28;20172;-66
2023/06/02 00:51:27;;;;;;;21.13;13.63;;;13.50;99.90;;;;;;5030247;28;20457;-66
2023/06/02 00:53:52;;;;;;;15.80;12.67;;;13.50;99.90;;;;;;5030945;28;20180;-66
2023/06/02 00:56:20;;;;;;;16.43;13.07;;;13.50;99.90;;;;;;5032468;28;20210;-66
2023/06/02 00:58:46;;;;;;;12.43;10.93;;;13.50;99.90;;;;;;5034551;28;20233;-66
2023/06/02 01:01:12;;;;;;;13.57;12.17;;;13.50;99.90;;;;;;5034263;28;20268;-66
2023/06/02 01:03:43;;;;;;;14.60;11.37;;;13.50;99.90;;;;;;5034241;28;20190;-66
2023/06/02 01:06:10;;;;;;;13.67;12.07;;;13.50;99.90;;;;;;5034225;28;20245;-66
2023/06/02 01:08:37;;;;;;;14.20;12.80;;;13.50;99.90;;;;;;5034391;28;20171;-66
2023/06/02 01:11:04;;;;;;;14.87;12.37;;;13.40;99.90;;;;;;5034112;28;20176;-66
2023/06/02 01:13:30;;;;;;;13.87;12.03;;;13.40;99.90;;;;;;5034055;28;20176;-66
2023/06/02 01:15:55;;;;;;;14.97;13.00;;;13.30;99.90;;;;;;5033795;28;20257;-66
2023/06/02 01:18:23;;;;;;;15.80;14.20;;;13.20;99.90;;;;;;5034321;28;20249;-66
2023/06/02 01:20:52;;;;;;;15.17;13.67;;;13.20;99.90;;;;;;5033665;28;20179;-66
2023/06/02 01:23:21;;;;;;;14.47;12.93;;;13.20;99.90;;;;;;5033782;28;20191;-66
2023/06/02 01:25:46;;;;;;;17.33;14.10;;;13.20;99.90;;;;;;5034355;28;20191;-66
2023/06/02 01:28:12;;;;;;;14.70;13.00;;;13.10;99.90;;;;;;5034164;28;20190;-66
2023/06/02 01:30:38;;;;;;;15.63;14.13;;;13.00;99.90;;;;;;5033754;28;20182;-66
2023/06/02 01:33:22;;;;;;;15.63;14.23;;;13.10;99.90;;;;;;5033913;28;20183;-66
2023/06/02 01:35:54;;;;;;;18.40;15.33;;;13.00;99.90;;;;;;5033955;28;20187;-66
2023/06/02 01:38:20;;;;;;;16.97;15.10;;;13.10;99.90;;;;;;5033615;28;20207;-66
2023/06/02 01:40:46;;;;;;;21.63;15.80;;;13.00;99.90;;;;;;5033534;28;20198;-66
2023/06/02 01:43:13;;;;;;;16.20;14.50;;;13.10;99.90;;;;;;5033579;28;20274;-66
2023/06/02 01:45:41;;;;;;;17.10;13.50;;;13.00;99.90;;;;;;5032316;28;20242;-66
2023/06/02 01:48:08;;;;;;;19.20;15.07;;;13.00;99.90;;;;;;5033505;28;20186;-66
2023/06/02 01:50:37;;;;;;;15.97;14.10;;;13.00;99.90;;;;;;5033466;28;20189;-66
2023/06/02 01:53:03;;;;;;;15.17;13.57;;;13.00;99.90;;;;;;5032143;28;20613;-66
2023/06/02 01:55:29;;;;;;;16.00;14.23;;;13.00;99.90;;;;;;5033291;28;20191;-66
2023/06/02 01:57:55;;;;;;;15.80;14.07;;;12.90;99.90;;;;;;5033404;28;20522;-66
2023/06/02 02:00:21;;;;;;;16.20;14.60;;;12.90;99.90;;;;;;5033139;28;20395;-66
2023/06/02 02:02:47;;;;;;;18.07;14.50;;;12.90;99.90;;;;;;5033528;28;20533;-66
2023/06/02 02:05:13;;;;;;;15.23;13.13;;;13.00;99.90;;;;;;5031783;28;20264;-66
2023/06/02 02:07:42;;;;;;;17.20;15.17;;;13.00;99.90;;;;;;5032965;28;20186;-66
2023/06/02 02:10:11;;;;;;;19.37;14.77;;;13.00;99.90;;;;;;5032972;28;20172;-66
2023/06/02 02:12:40;;;;;;;17.00;14.60;;;13.00;99.90;;;;;;5033443;28;20168;-67
2023/06/02 02:15:07;;;;;;;13.90;12.67;;;12.90;99.90;;;;;;5032027;28;20641;-72
2023/06/02 02:20:00;;;;;;;14.40;13.10;;;12.70;99.90;;;;;;5030115;28;20667;-68
2023/06/02 02:22:26;;;;;;;16.10;13.67;;;12.60;99.90;;;;;;5033178;28;20195;-68
2023/06/02 02:24:51;;;;;;;14.80;13.40;;;12.60;99.90;;;;;;5033118;28;20198;-68
2023/06/02 02:27:17;;;;;;;15.27;13.73;;;12.60;99.90;;;;;;5033028;28;20184;-68
2023/06/02 02:29:44;;;;;;;14.40;12.50;;;12.60;99.90;;;;;;5033107;28;20183;-68
2023/06/02 02:32:10;;;;;;;14.77;13.17;;;12.50;99.90;;;;;;5033572;28;20371;-68
2023/06/02 02:34:38;;;;;;;14.73;13.40;;;12.50;99.90;;;;;;5033301;28;20187;-68
2023/06/02 02:37:06;;;;;;;15.00;13.40;;;12.50;99.90;;;;;;5032880;28;20214;-68
2023/06/02 02:39:35;;;;;;;18.07;14.57;;;12.50;99.90;;;;;;5032600;28;20568;-68
2023/06/02 02:42:00;;;;;;;16.73;14.90;;;12.40;99.90;;;;;;5032818;28;20187;-68
2023/06/02 02:44:26;;;;;;;21.43;15.17;;;12.40;99.90;;;;;;5032754;28;20169;-68
2023/06/02 02:46:51;;;;;;;18.60;15.43;;;12.30;99.90;;;;;;5032708;28;20262;-68
2023/06/02 02:49:17;;;;;;;19.90;14.73;;;12.40;99.90;;;;;;5032655;28;20210;-68
2023/06/02 02:51:43;;;;;;;17.47;15.03;;;12.40;99.90;;;;;;5032917;28;20660;-68
2023/06/02 02:54:08;;;;;;;16.30;14.63;;;12.40;99.90;;;;;;5032873;28;20171;-68
2023/06/02 02:56:36;;;;;;;16.93;14.10;;;12.40;99.90;;;;;;5032655;28;20195;-69
2023/06/02 02:59:02;;;;;;;14.83;13.33;;;12.30;99.90;;;;;;5032598;28;20195;-69
2023/06/02 03:01:30;;;;;;;18.13;15.80;;;12.30;99.90;;;;;;5032514;28;20178;-69
2023/06/02 03:03:56;;;;;;;16.07;13.80;;;12.40;99.90;;;;;;5032486;28;20164;-69
2023/06/02 03:06:31;;;;;;;22.27;16.20;;;12.40;99.90;;;;;;5032453;28;20275;-69
2023/06/02 03:08:58;;;;;;;16.03;13.87;;;12.30;99.90;;;;;;5032508;28;20178;-69
2023/06/02 03:11:24;;;;;;;15.07;13.43;;;12.40;99.90;;;;;;5032065;28;20168;-69
2023/06/02 03:13:50;;;;;;;14.30;12.90;;;12.40;99.90;;;;;;5032424;28;20259;-66
2023/06/02 03:16:16;;;;;;;14.87;13.30;;;12.40;99.90;;;;;;5032191;28;20274;-68
2023/06/02 03:18:42;;;;;;;16.47;13.53;;;12.30;99.90;;;;;;5031382;28;20211;-67
2023/06/02 03:21:07;;;;;;;15.47;13.97;;;12.20;99.90;;;;;;5031839;28;20718;-67
2023/06/02 03:23:33;;;;;;;16.43;13.50;;;12.20;99.90;;;;;;5031980;28;20298;-68
2023/06/02 03:26:02;;;;;;;15.47;13.60;;;12.20;99.90;;;;;;5032018;28;20188;-68
2023/06/02 03:28:28;;;;;;;20.60;15.17;;;12.20;99.90;;;;;;5031866;28;20171;-67
2023/06/02 03:30:54;;;;;;;16.40;14.70;;;12.20;99.90;;;;;;5031820;28;20175;-68
2023/06/02 03:33:19;;;;;;;16.33;13.87;;;12.20;99.90;;;;;;5031760;28;20600;-68
2023/06/02 03:35:45;;;;;;;16.30;13.70;;;12.20;99.90;;;;;;5031674;28;20207;-68
2023/06/02 03:38:11;;;;;;;15.47;13.87;;;12.10;99.90;;;;;;5031678;28;20286;-67
2023/06/02 03:40:37;;;;;;;17.27;14.73;;;12.10;99.90;;;;;;5031690;28;20171;-67
2023/06/02 03:43:02;;;;;;;18.47;14.53;;;12.10;99.90;;;;;;5031752;28;20218;-68
2023/06/02 03:45:28;;;;;;;16.20;13.57;;;12.20;99.90;;;;;;5031527;28;20650;-68
2023/06/02 03:47:53;;;;;;;13.90;12.50;;;12.20;99.90;;;;;;5031669;28;20171;-68
2023/06/02 03:50:19;;;;;;;12.87;11.57;;;12.20;99.90;;;;;;5031582;28;20178;-68
2023/06/02 03:52:45;;;;;;;13.13;11.73;;;12.20;99.90;;;;;;5031586;28;20297;-68
2023/06/02 03:55:10;;;;;;;15.37;12.17;;;12.10;99.90;;;;;;5031596;28;20180;-68
2023/06/02 03:57:36;;;;;;;16.70;13.10;;;12.10;99.90;;;;;;5031339;28;20595;-68
2023/06/02 04:00:03;;;;;;;15.97;12.53;;;12.10;99.90;;;;;;5031382;28;20562;-67
2023/06/02 04:02:28;;;;;;;14.77;12.27;;;12.20;99.90;;;;;;5031579;28;20251;-68
2023/06/02 04:04:54;;;;;;;17.17;13.47;;;12.30;99.90;;;;;;5031419;28;20274;-67
2023/06/02 04:07:19;;;;;;;16.07;14.27;;;12.20;99.90;;;;;;5029946;28;20194;-67
2023/06/02 04:09:45;;;;;;;16.30;12.70;;;12.20;99.90;;;;;;5031373;28;20179;-67
2023/06/02 04:12:11;;;;;;;15.50;13.17;;;12.10;99.90;;;;;;5031420;28;20612;-67
2023/06/02 04:14:37;;;;;;;16.80;13.37;;;12.20;99.90;;;;;;5031416;28;20202;-67
2023/06/02 04:17:03;;;;;;;15.77;13.23;;;12.30;99.90;;;;;;5031181;28;20199;-67
2023/06/02 04:19:28;;;;;;;17.53;13.73;;;12.20;99.90;;;;;;5030995;28;20695;-67
2023/06/02 04:21:54;;;;;;;20.23;15.63;;;12.20;99.90;;;;;;5030043;28;20228;-68
2023/06/02 04:24:19;;;;;;;23.90;17.40;;;12.20;99.90;;;;;;5031368;28;20176;-68
2023/06/02 04:26:46;;;;;;;23.37;18.10;;;12.00;99.90;;;;;;5029956;28;20194;-68
2023/06/02 04:29:11;;;;;;;24.77;18.47;;;12.00;99.90;;;;;;5031674;28;20167;-68
2023/06/02 04:31:47;;;;;;;20.67;17.20;;;12.10;99.90;;;;;;5035111;28;20167;-68
2023/06/02 04:34:12;;;;;;;19.20;14.80;;;12.20;99.90;;;;;;5035178;28;20359;-68
2023/06/02 04:36:39;;;;;;;17.83;15.87;;;12.20;99.90;;;;;;5034486;28;20612;-68
2023/06/02 04:39:08;;;;;;;18.77;14.77;;;12.20;99.90;;;;;;5034939;28;20234;-68
2023/06/02 04:41:38;;;;;;;17.47;13.07;;;12.20;99.90;;;;;;5034546;28;20184;-68
2023/06/02 04:44:05;;;;;;;13.47;11.77;;;12.20;99.90;;;;;;5035162;28;20168;-68
2023/06/02 04:46:31;;;;;;;16.97;11.53;;;12.20;99.90;;;;;;5034724;28;20529;-68
2023/06/02 04:48:57;;;;;;;16.23;12.07;;;12.10;99.90;;;;;;5034602;28;20191;-67
2023/06/02 04:51:27;;;;;;;15.27;11.50;;;12.10;99.90;;;;;;5034351;28;20186;-67
2023/06/02 04:53:53;;;;;;;15.47;10.60;;;12.10;99.90;;;;;;5034607;28;20178;-67
2023/06/02 04:56:18;;;;;;;12.00;10.67;;;12.20;99.90;;;;;;5033604;28;20200;-67
2023/06/02 04:58:44;;;;;;;11.67;10.57;;;12.10;99.90;;;;;;5034271;28;20209;-67
2023/06/02 05:01:09;;;;;;;13.93;9.73;;;12.10;99.90;;;;;;5034333;28;20222;-67
2023/06/02 05:03:35;;;;;;;13.80;10.67;;;12.10;99.90;;;;;;5034287;28;20174;-68
2023/06/02 05:06:02;;;;;;;13.23;10.87;;;12.20;99.90;;;;;;5034239;28;20262;-68
2023/06/02 05:08:27;;;;;;;12.80;10.63;;;12.30;99.90;;;;;;5034517;28;20210;-68
2023/06/02 05:10:53;;;;;;;13.27;11.10;;;12.30;99.90;;;;;;5033785;28;20309;-68
2023/06/02 05:13:19;;;;;;;12.00;10.53;;;12.30;99.90;;;;;;5034193;28;20186;-69
2023/06/02 05:15:44;;;;;;;14.30;10.80;;;12.30;99.90;;;;;;5034219;28;20195;-67
2023/06/02 05:18:11;;;;;;;13.57;10.97;;;12.30;99.90;;;;;;5034023;28;20203;-67
2023/06/02 05:20:36;;;;;;;17.60;10.90;;;12.30;99.90;;;;;;5033546;28;20213;-68
2023/06/02 05:23:02;;;;;;;13.33;11.47;;;12.40;99.90;;;;;;5034113;28;20180;-67
2023/06/02 05:25:27;;;;;;;14.03;11.10;;;12.40;99.90;;;;;;5033959;28;20176;-67
2023/06/02 05:27:53;;;;;;;18.67;11.47;;;12.50;99.90;;;;;;5033909;28;20201;-68
2023/06/02 05:30:19;;;;;;;11.87;10.40;;;12.60;99.90;;;;;;5034102;28;20171;-68
2023/06/02 05:32:45;;;;;;;14.47;12.07;;;12.60;99.90;;;;;;5033715;28;20191;-68
2023/06/02 05:35:10;;;;;;;16.47;12.37;;;12.60;99.90;;;;;;5033847;28;20183;-68
2023/06/02 05:37:36;;;;;;;15.00;12.30;;;12.70;99.90;;;;;;5033553;28;20688;-68
2023/06/02 05:40:01;;;;;;;17.30;11.60;;;12.70;99.90;;;;;;5033510;28;20210;-67
2023/06/02 05:42:27;;;;;;;16.67;11.27;;;12.80;99.90;;;;;;5033231;28;20221;-67
2023/06/02 05:44:53;;;;;;;12.27;10.97;;;12.80;99.90;;;;;;5033786;28;20167;-67
2023/06/02 05:47:18;;;;;;;13.13;11.73;;;12.80;99.90;;;;;;5033681;28;20225;-67
2023/06/02 05:49:44;;;;;;;13.63;11.23;;;12.90;99.90;;;;;;5032973;28;20585;-67
2023/06/02 05:52:10;;;;;;;14.23;11.50;;;12.90;99.90;;;;;;5032292;28;20226;-68
2023/06/02 05:54:35;;;;;;;13.07;10.77;;;13.00;99.90;;;;;;5033128;28;20186;-68
2023/06/02 05:57:01;;;;;;;19.37;11.17;;;13.00;99.90;;;;;;5032664;28;20211;-68
2023/06/02 05:59:28;;;;;;;15.47;10.67;;;13.10;99.90;;;;;;5033264;28;20560;-68
2023/06/02 06:01:53;;;;;;;12.90;11.43;;;13.10;99.90;;;;;;5033369;28;20233;-67
2023/06/02 06:04:19;;;;;;;12.57;11.10;;;13.10;99.90;;;;;;5033153;28;20609;-67
2023/06/02 06:06:45;;;;;;;13.30;10.60;;;13.20;99.90;;;;;;5032812;28;20249;-68
2023/06/02 06:09:10;;;;;;;12.47;11.27;;;13.20;99.90;;;;;;5032725;28;20179;-67
2023/06/02 06:11:36;;;;;;;12.40;11.20;;;13.30;99.90;;;;;;5031672;28;20515;-67
2023/06/02 06:14:05;;;;;;;13.50;11.80;;;13.40;99.90;;;;;;5033181;28;20167;-67
2023/06/02 06:16:30;;;;;;;12.47;9.90;;;13.50;99.90;;;;;;5033056;28;20241;-67
2023/06/02 06:18:56;;;;;;;12.13;10.90;;;13.40;99.90;;;;;;5032596;28;20207;-67
2023/06/02 06:21:23;;;;;;;20.33;11.00;;;13.40;99.90;;;;;;5032748;28;20183;-68
2023/06/02 06:23:48;;;;;;;23.27;12.10;;;13.50;99.90;;;;;;5032685;28;20183;-67
2023/06/02 06:26:14;;;;;;;17.93;11.83;;;13.60;99.90;;;;;;5031863;28;20637;-67
2023/06/02 06:28:43;;;;;;;14.83;12.03;;;13.60;99.90;;;;;;5032988;28;20196;-68
2023/06/02 06:31:08;;;;;;;14.27;12.77;;;13.60;99.90;;;;;;5032566;28;20229;-68
2023/06/02 06:33:34;;;;;;;14.93;12.37;;;13.60;99.90;;;;;;5032535;28;20191;-68
2023/06/02 06:36:00;;;;;;;15.60;12.30;;;13.70;99.90;;;;;;5033001;28;20196;-68
2023/06/02 06:38:25;;;;;;;16.23;11.50;;;13.80;99.90;;;;;;5032822;28;20286;-68
2023/06/02 06:40:51;;;;;;;13.60;12.27;;;13.70;99.90;;;;;;5032545;28;20172;-68
2023/06/02 06:43:17;;;;;;;15.07;11.27;;;13.70;99.90;;;;;;5032750;28;20645;-67
2023/06/02 06:45:42;;;;;;;18.60;11.63;;;13.90;99.90;;;;;;5032444;28;20195;-67
2023/06/02 06:48:08;;;;;;;18.37;12.10;;;14.00;99.90;;;;;;5032859;28;20548;-68
2023/06/02 06:50:35;;;;;;;18.17;13.00;;;14.20;99.90;;;;;;5032344;28;20258;-68
2023/06/02 06:53:03;;;;;;;15.43;13.73;;;14.10;99.90;;;;;;5011975;28;20168;-67
2023/06/02 06:55:29;;;;;;;23.50;12.57;;;14.10;99.90;;;;;;5026742;28;20198;-68
2023/06/02 06:57:55;;;;;;;16.63;13.83;;;14.20;99.90;;;;;;5016770;28;20188;-68
2023/06/02 07:00:22;;;;;;;19.67;13.10;;;14.40;99.90;;;;;;5031474;28;20179;-68
2023/06/02 07:02:48;;;;;;;18.80;12.80;;;14.60;99.90;;;;;;5032206;28;20202;-68
2023/06/02 07:05:17;;;;;;;14.20;12.73;;;14.80;99.90;;;;;;5032555;28;20167;-67
2023/06/02 07:07:43;;;;;;;13.10;11.53;;;14.90;99.90;;;;;;5031981;28;20567;-68
2023/06/02 07:10:10;;;;;;;13.47;12.07;;;14.90;99.90;;;;;;5032511;28;20254;-68
2023/06/02 07:12:36;;;;;;;13.77;10.93;;;15.00;99.90;;;;;;5032238;28;20656;-68
2023/06/02 07:15:09;;;;;;;14.17;10.70;;;15.10;99.90;;;;;;5068801;28;20591;-68
2023/06/02 07:17:34;;;;;;;17.80;11.30;;;15.10;99.90;;;;;;5068518;28;20204;-68
2023/06/02 07:20:00;;;;;;;13.03;11.13;;;15.00;99.90;;;;;;5068821;28;20174;-69
2023/06/02 07:22:26;;;;;;;15.27;10.73;;;15.00;99.90;;;;;;5068748;28;20175;-68
2023/06/02 07:24:51;;;;;;;14.17;10.80;;;15.00;99.90;;;;;;5068690;28;20205;-68
2023/06/02 07:27:17;;;;;;;18.83;13.23;;;15.00;99.90;;;;;;5039136;22;20224;-68
2023/06/02 07:29:43;;;;;;;15.77;10.70;;;15.10;99.90;;;;;;5008582;28;20176;-67
2023/06/02 07:32:09;;;;;;;13.57;10.70;;;15.40;99.90;;;;;;5009361;28;20691;-68
2023/06/02 07:34:34;;;;;;;13.93;11.00;;;15.50;99.90;;;;;;5007332;28;20207;-68
2023/06/02 07:37:02;;;;;;;14.67;11.40;;;15.40;99.90;;;;;;5008185;28;20200;-65
2023/06/02 07:39:28;;;;;;;12.10;10.77;;;15.70;99.90;;;;;;5006259;28;20173;-67
2023/06/02 07:41:54;;;;;;;13.30;11.47;;;15.70;99.90;;;;;;5008486;28;20168;-68
2023/06/02 07:44:19;;;;;;;11.73;10.67;;;15.80;99.90;;;;;;5008588;28;20191;-67
2023/06/02 07:46:47;;;;;;;14.40;10.03;;;15.90;99.90;;;;;;4990985;28;20204;-68
2023/06/02 07:49:13;;;;;;;15.73;10.43;;;15.90;99.90;;;;;;5007011;28;20200;-68
2023/06/02 07:51:39;;;;;;;15.07;9.97;;;16.10;99.90;;;;;;5007962;28;20180;-68
2023/06/02 07:54:05;;;;;;;11.67;10.33;;;16.40;99.90;;;;;;5008244;28;20565;-68
2023/06/02 07:56:31;;;;;;;11.30;10.20;;;16.50;99.90;;;;;;5007485;28;20192;-68
2023/06/02 07:58:56;;;;;;;12.37;10.77;;;16.30;99.90;;;;;;5008217;28;20701;-68
2023/06/02 08:01:22;;;;;;;10.93;9.80;;;16.50;99.90;;;;;;5006462;28;20180;-65
2023/06/02 08:03:47;;;;;;;12.43;11.10;;;16.60;99.90;;;;;;5007183;28;20188;-65
2023/06/02 08:06:14;;;;;;;16.33;12.00;;;16.60;99.90;;;;;;5007881;28;20200;-68
2023/06/02 08:08:39;;;;;;;16.67;11.07;;;16.60;99.90;;;;;;5006673;28;20179;-68
2023/06/02 08:11:05;;;;;;;15.40;10.87;;;16.50;99.90;;;;;;5007903;28;20561;-68
2023/06/02 08:13:30;;;;;;;11.27;10.00;;;16.40;99.90;;;;;;5006435;28;20231;-68
2023/06/02 08:15:57;;;;;;;14.27;10.33;;;16.30;99.90;;;;;;5008022;28;20185;-67
2023/06/02 08:18:23;;;;;;;12.70;10.70;;;16.20;99.90;;;;;;5007930;28;20168;-68
2023/06/02 08:20:48;;;;;;;17.53;10.63;;;16.40;99.90;;;;;;5007673;28;20226;-68
2023/06/02 08:23:14;;;;;;;18.53;9.90;;;16.70;99.90;;;;;;5007944;28;20172;-68
2023/06/02 08:25:40;;;;;;;13.80;10.40;;;17.00;99.90;;;;;;4997587;28;20211;-68
2023/06/02 08:28:06;;;;;;;11.53;10.13;;;17.00;99.90;;;;;;4994674;28;20181;-67
2023/06/02 08:30:35;;;;;;;14.23;10.90;;;17.10;99.90;;;;;;4993888;28;20185;-67
2023/06/02 08:33:05;;;;;;;14.90;10.43;;;17.00;99.90;;;;;;4994674;28;20173;-68
2023/06/02 08:35:32;;;;;;;11.90;10.57;;;17.20;99.90;;;;;;4994435;28;20196;-65
2023/06/02 08:38:02;;;;;;;13.53;11.33;;;17.30;99.90;;;;;;4994593;28;20223;-67
2023/06/02 08:40:36;;;;;;;12.03;10.77;;;17.40;99.90;;;;;;4992939;28;20188;-67
2023/06/02 08:43:03;;;;;;;12.50;10.73;;;17.40;99.90;;;;;;4994391;28;20172;-67
2023/06/02 08:45:29;;;;;;;14.97;10.07;;;17.40;99.90;;;;;;4994162;28;20172;-67
2023/06/02 08:47:56;;;;;;;14.73;10.07;;;17.40;99.90;;;;;;4992924;28;20193;-67
2023/06/02 08:50:27;;;;;;;15.57;9.03;;;17.30;99.90;;;;;;4994241;28;20243;-67
2023/06/02 08:52:55;;;;;;;12.17;9.00;;;17.30;99.90;;;;;;4994036;28;20212;-67
2023/06/02 08:55:23;;;;;;;15.80;9.33;;;17.40;99.90;;;;;;4993090;28;20260;-67
2023/06/02 08:57:49;;;;;;;11.00;9.30;;;17.30;99.90;;;;;;4994085;28;20169;-67
2023/06/02 09:00:15;;;;;;;11.23;9.90;;;17.30;99.90;;;;;;4993742;28;20172;-67
2023/06/02 09:02:41;;;;;;;10.80;9.67;;;17.60;99.90;;;;;;4992548;28;20180;-67
2023/06/02 09:05:07;;;;;;;10.45;9.05;;;18.10;99.90;;;;;;4992449;28;20181;-67
2023/06/02 09:07:33;;;;;;;17.05;9.98;;;18.40;99.90;;;;;;4992968;28;20583;-67
2023/06/02 09:09:59;;;;;;;10.27;9.13;;;18.20;99.90;;;;;;4993755;28;20260;-68
2023/06/02 09:12:25;;;;;;;10.80;8.70;;;18.80;99.90;;;;;;4994101;28;20180;-67
2023/06/02 09:15:09;;;;;;;11.40;10.30;;;19.30;99.90;;;;;;4992240;28;20611;-67
2023/06/02 09:17:34;;;;;;;11.73;8.35;;;19.30;99.90;;;;;;4993968;28;20534;-67
2023/06/02 09:20:10;;;;;;;8.63;7.53;;;19.90;99.90;;;;;;4994002;28;20169;-65
2023/06/02 09:22:52;;;;;;;10.40;7.85;;;20.00;99.90;;;;;;4994275;28;20594;-66
2023/06/02 09:25:21;;;;;;;9.07;7.78;;;20.30;99.90;;;;;;4993897;28;20177;-67
2023/06/02 09:27:55;;;;;;;12.02;8.45;;;20.50;99.90;;;;;;4993488;28;20207;-67
2023/06/02 09:30:21;;;;;;;10.20;7.53;;;20.60;99.90;;;;;;4993699;28;20173;-67
2023/06/02 09:32:57;;;;;;;9.82;8.73;;;20.30;99.90;;;;;;4993110;28;20250;-67
2023/06/02 09:35:41;;;;;;;10.55;7.60;;;19.90;99.90;;;;;;4993122;28;20267;-67
2023/06/02 09:38:10;;;;;;;9.48;7.43;;;19.70;99.90;;;;;;4992701;28;20176;-67
2023/06/02 09:40:37;;;;;;;13.10;7.78;;;19.50;99.90;;;;;;4993275;28;20252;-67
2023/06/02 09:43:04;;;;;;;10.70;7.53;;;19.40;99.90;;;;;;4993577;28;20173;-65
2023/06/02 09:45:30;;;;;;;10.55;7.65;;;19.10;99.90;;;;;;4993373;28;20193;-67
2023/06/02 09:47:57;;;;;;;13.10;8.02;;;19.10;99.90;;;;;;4992322;28;20176;-67
2023/06/02 09:50:36;;;;;;;14.82;8.32;;;19.00;99.90;;;;;;4993458;28;20220;-67
2023/06/02 09:53:03;;;;;;;10.85;7.75;;;19.00;99.90;;;;;;4993483;28;20587;-68
2023/06/02 09:55:36;;;;;;;11.27;7.18;;;19.10;99.90;;;;;;4993407;28;20169;-67
2023/06/02 09:58:05;;;;;;;8.88;6.85;;;19.20;99.90;;;;;;4993628;28;20172;-68
2023/06/02 10:00:32;;;;;;;11.35;6.95;;;19.80;99.90;;;;;;4992916;28;20534;-67
2023/06/02 10:02:58;;;;;;;7.18;6.43;;;20.40;99.90;;;;;;4993247;28;20183;-68
2023/06/02 10:05:24;;;;;;;10.05;6.40;;;21.00;99.90;;;;;;4993156;28;20227;-66
2023/06/02 10:08:11;;;;;;;9.15;6.65;;;21.10;99.90;;;;;;4992960;28;20277;-65
2023/06/02 10:11:15;;;;;;;8.63;6.78;;;21.10;99.90;;;;;;4992768;28;20169;-67
2023/06/02 10:13:54;;;;;;;11.60;6.70;;;21.40;99.90;;;;;;4987813;28;20213;-66
2023/06/02 10:16:38;;;;;;;13.65;7.07;;;21.30;99.90;;;;;;4990647;28;20197;-66
2023/06/02 10:19:09;;;;;;;7.95;7.15;;;20.80;99.90;;;;;;4993138;28;20223;-67
2023/06/02 10:21:42;;;;;;;8.48;6.88;;;20.90;99.90;;;;;;4991296;28;20183;-67
2023/06/02 10:24:29;;;;;;;8.85;7.07;;;20.80;99.90;;;;;;4993052;28;20181;-67
2023/06/02 10:27:27;;;;;;;10.23;6.40;;;20.80;99.90;;;;;;4991529;28;20591;-67
2023/06/02 10:29:55;;;;;;;10.13;6.40;;;20.90;99.90;;;;;;4992495;28;20177;-67
2023/06/02 10:32:27;;;;;;;9.60;6.60;;;20.80;99.90;;;;;;4992777;28;20781;-67
2023/06/02 10:34:56;;;;;;;7.82;6.47;;;20.90;99.90;;;;;;4992481;28;20204;-67
2023/06/02 10:37:22;;;;;;;9.30;6.47;;;21.20;99.90;;;;;;4991453;28;20189;-67
2023/06/02 10:39:51;;;;;;;7.57;6.72;;;21.30;99.90;;;;;;4990774;28;20635;-67
2023/06/02 10:42:18;;;;;;;8.43;5.97;;;21.30;99.90;;;;;;4992851;28;20846;-67
2023/06/02 10:44:44;;;;;;;9.85;6.13;;;21.90;99.90;;;;;;4991651;28;20647;-67
2023/06/02 10:47:19;;;;;;;9.48;5.70;;;22.50;99.90;;;;;;4992567;28;20193;-67
2023/06/02 10:49:55;;;;;;;9.25;6.70;;;23.00;99.90;;;;;;4990418;28;20246;-66
2023/06/02 10:52:59;;;;;;;7.53;5.68;;;23.40;99.90;;;;;;4992525;28;20255;-67
2023/06/02 10:55:27;;;;;;;9.77;6.47;;;23.20;99.90;;;;;;4981232;28;20291;-67
2023/06/02 10:57:59;;;;;;;8.85;6.13;;;23.20;99.90;;;;;;4990936;28;20275;-67
2023/06/02 11:00:36;;;;;;;9.15;6.53;;;23.40;99.90;;;;;;4992213;28;20176;-67
2023/06/02 11:03:05;;;;;;;7.22;6.05;;;23.60;99.90;;;;;;4992320;28;20184;-67
2023/06/02 11:05:33;;;;;;;8.80;5.40;;;23.50;99.90;;;;;;4992210;28;20247;-67
2023/06/02 11:08:11;;;;;;;11.23;6.13;;;23.30;99.90;;;;;;4992420;28;20188;-67
2023/06/02 11:10:54;;;;;;;9.63;6.72;;;23.20;99.90;;;;;;4991903;28;20672;-67
2023/06/02 11:13:24;;;;;;;8.38;6.28;;;23.30;99.90;;;;;;4991082;28;20243;-67
2023/06/02 11:15:58;;;;;;;12.75;5.80;;;23.30;99.90;;;;;;4992019;28;20246;-68
2023/06/02 11:21:03;;;;;;;9.57;6.40;;;24.10;99.90;;;;;;4992022;28;20173;-67
2023/06/02 11:23:29;;;;;;;8.73;6.20;;;24.00;99.90;;;;;;4992174;28;20216;-67
2023/06/02 11:26:01;;;;;;;8.38;5.88;;;24.00;99.90;;;;;;4992152;28;20206;-67
2023/06/02 11:28:28;;;;;;;8.43;5.72;;;23.70;99.90;;;;;;4990755;28;20180;-67
2023/06/02 11:31:16;;;;;;;9.70;5.90;;;23.60;99.90;;;;;;4991703;28;20184;-67
2023/06/02 11:33:48;;;;;;;7.95;5.57;;;23.50;99.90;;;;;;4992210;28;20215;-67
2023/06/02 11:36:39;;;;;;;12.50;5.82;;;23.90;99.90;;;;;;4992077;28;20196;-67
2023/06/02 11:39:09;;;;;;;8.82;5.70;;;24.10;99.90;;;;;;4992297;28;20176;-67
2023/06/02 11:41:34;;;;;;;11.15;6.53;;;24.10;99.90;;;;;;4991788;28;20216;-68
2023/06/02 11:44:18;;;;;;;7.22;5.65;;;24.10;99.90;;;;;;4991833;28;20184;-67
2023/06/02 11:46:45;;;;;;;7.35;5.68;;;24.00;99.90;;;;;;4991702;28;20201;-67
2023/06/02 11:49:11;;;;;;;7.82;5.85;;;24.00;99.90;;;;;;4991777;28;20172;-67
2023/06/02 11:51:37;;;;;;;8.75;5.72;;;24.30;99.90;;;;;;4991612;28;20176;-67
2023/06/02 11:54:04;;;;;;;7.15;5.22;;;24.40;99.90;;;;;;4990444;28;20242;-67
2023/06/02 11:56:31;;;;;;;10.60;5.70;;;24.50;99.90;;;;;;4990493;28;20572;-67
2023/06/02 11:58:57;;;;;;;7.57;5.63;;;24.80;99.90;;;;;;4991703;28;20602;-67
2023/06/02 12:01:23;;;;;;;8.63;5.40;;;24.60;99.90;;;;;;4994212;28;20197;-67
2023/06/02 12:04:03;;;;;;;9.25;5.75;;;24.40;99.90;;;;;;4995161;28;20272;-68
2023/06/02 12:06:30;;;;;;;12.07;6.35;;;24.30;99.90;;;;;;4995503;28;20749;-67
2023/06/02 12:09:08;;;;;;;8.73;5.30;;;24.00;99.90;;;;;;4995235;28;20180;-68
2023/06/02 12:11:33;;;;;;;11.00;5.88;;;24.10;99.90;;;;;;4995151;28;20180;-67
2023/06/02 12:14:04;;;;;;;11.77;6.47;;;24.60;99.90;;;;;;4993836;28;20204;-67
2023/06/02 12:16:30;;;;;;;8.32;6.78;;;24.90;99.90;;;;;;4995104;28;20218;-68
2023/06/02 12:19:12;;;;;;;9.23;7.70;;;25.40;99.90;;;;;;4994997;28;20292;-68
2023/06/02 12:21:41;;;;;;;8.88;7.10;;;25.30;99.90;;;;;;4994941;28;20252;-68
2023/06/02 12:24:07;;;;;;;9.98;6.95;;;25.30;99.90;;;;;;4995014;28;20245;-67
2023/06/02 12:26:40;;;;;;;9.77;6.50;;;25.70;99.90;;;;;;4994768;28;20212;-67
2023/06/02 12:29:07;;;;;;;11.32;8.18;;;25.60;99.90;;;;;;4994749;28;20184;-67
2023/06/02 12:31:32;;;;;;;12.63;8.95;;;25.30;99.90;;;;;;4993940;28;20180;-67
2023/06/02 12:33:58;;;;;;;11.18;8.32;;;25.10;99.90;;;;;;4994602;28;20561;-67
2023/06/02 12:36:23;;;;;;;11.32;8.05;;;25.20;99.90;;;;;;4994719;28;20192;-68
2023/06/02 12:38:49;;;;;;;9.18;6.68;;;25.10;99.90;;;;;;4994894;28;20183;-67
2023/06/02 12:41:15;;;;;;;11.80;6.60;;;25.40;99.90;;;;;;4994408;28;20207;-67
2023/06/02 12:43:41;;;;;;;8.35;7.22;;;25.50;99.90;;;;;;4993407;28;20183;-67